Beacon Sw Bulker — 3EMX3 — position and weather

sailwx.info

Track history (hours):
 
Tides and Currents Weather Stations Pressure Air Temp Water Temp Dewpoint Dewpoint Depression Visibility Wind Speed Wind Dir Waves Ship Positions

Beacon Sw Bulker

Last reported at 2018-Feb-13 17:28 UTC. Time now 2018-Feb-20 21:50 UTC.
Position N 09°07' W 079°48'.

Length 295 m; draft 11.6 m.

Type: Tanker. MMSI: 370895000.

Date/timePositionNaut miles runAvg speedWind from/ knotsBaromVisibWave heightAir tempDewpointWater temp
2018-Feb-13 17:28N 09°07' W 079°48'5 7.3
2018-Feb-13 16:49N 09°11' W 079°51'2 8.1
2018-Feb-13 16:30N 09°12' W 079°54'3 6.3
2018-Feb-13 16:01N 09°14' W 079°55'2 3.3
2018-Feb-13 15:29N 09°16' W 079°55'0 0.1
2018-Feb-13 15:00N 09°16' W 079°55'0 0.5
2018-Feb-13 14:30N 09°16' W 079°55'0 0.5
2018-Feb-13 14:00N 09°17' W 079°55'0 0.0
2018-Feb-13 13:30N 09°17' W 079°55'0 0.6
2018-Feb-13 13:00N 09°17' W 079°55'1 1.4
2018-Feb-13 12:30N 09°18' W 079°55'2 4.1
2018-Feb-13 12:00N 09°20' W 079°55'3 5.9
2018-Feb-13 11:30N 09°23' W 079°55'4 8.1
2018-Feb-13 11:00N 09°27' W 079°55'0 1.0
2018-Feb-13 10:30N 09°26' W 079°56'0 0.3
2018-Feb-13 10:00N 09°26' W 079°56'0 0.0
2018-Feb-13 09:30N 09°26' W 079°56'0 0.0
2018-Feb-13 09:00N 09°26' W 079°56'0 0.0
2018-Feb-13 08:30N 09°26' W 079°56'0 0.0
2018-Feb-13 08:00N 09°26' W 079°56'0 0.0
2018-Feb-13 07:30N 09°26' W 079°56'0 0.0
2018-Feb-13 07:00N 09°26' W 079°56'0 0.0
2018-Feb-13 06:27N 09°26' W 079°56'0 0.0
2018-Feb-13 06:00N 09°26' W 079°56'0 0.0
2018-Feb-13 05:30N 09°26' W 079°56'0 0.0
2018-Feb-13 04:57N 09°26' W 079°56'0 0.0
2018-Feb-13 04:30N 09°26' W 079°56'0 0.1
2018-Feb-13 03:57N 09°26' W 079°56'0 0.0
2018-Feb-13 03:30N 09°26' W 079°56'0 0.0
2018-Feb-13 03:00N 09°26' W 079°56'0 0.0
2018-Feb-13 02:30N 09°26' W 079°56'0 0.0
2018-Feb-13 02:00N 09°26' W 079°56'0 0.0
2018-Feb-13 01:27N 09°26' W 079°56'0 0.0
2018-Feb-13 01:00N 09°26' W 079°56'0 0.0
2018-Feb-13 00:30N 09°26' W 079°56'0 0.0
2018-Feb-13 00:00N 09°26' W 079°56'0 0.0
2018-Feb-12 23:30N 09°26' W 079°56'0 0.0
2018-Feb-12 23:00N 09°26' W 079°56'0 0.0
2018-Feb-12 22:30N 09°26' W 079°56'0 0.0
2018-Feb-12 22:00N 09°26' W 079°56'0 0.0
2018-Feb-12 21:30N 09°26' W 079°56'0 0.0
2018-Feb-12 20:57N 09°26' W 079°56'0 0.0
2018-Feb-12 20:30N 09°26' W 079°56'0 0.0
2018-Feb-12 20:00N 09°26' W 079°56'0 0.0
2018-Feb-12 19:30N 09°26' W 079°56'0 0.0
2018-Feb-12 19:00N 09°26' W 079°56'0 0.0
2018-Feb-12 18:30N 09°26' W 079°56'0 0.0
2018-Feb-12 18:00N 09°26' W 079°56'0 0.0
2018-Feb-12 17:30N 09°26' W 079°56'0 0.0
2018-Feb-12 17:00N 09°26' W 079°56'0 0.1
2018-Feb-12 16:30N 09°26' W 079°56'0 0.1
2018-Feb-12 16:00N 09°26' W 079°56'0 0.1
2018-Feb-12 15:15N 09°26' W 079°56'0 0.0
2018-Feb-12 15:00N 09°26' W 079°56'0 0.0
2018-Feb-12 14:30N 09°26' W 079°56'0 0.0
2018-Feb-12 14:00N 09°26' W 079°56'0 0.0
2018-Feb-12 13:30N 09°26' W 079°56'0 0.0
2018-Feb-12 13:00N 09°26' W 079°56'0 0.0
2018-Feb-12 12:30N 09°26' W 079°56'0 0.0
2018-Feb-12 12:00N 09°26' W 079°56'0 0.0
2018-Feb-12 11:30N 09°26' W 079°56'0 0.0
2018-Feb-12 11:00N 09°26' W 079°56'0 0.0
2018-Feb-12 10:30N 09°26' W 079°56'0 0.0
2018-Feb-12 10:00N 09°26' W 079°56'0 0.0
2018-Feb-12 09:27N 09°26' W 079°56'0 0.0
2018-Feb-12 08:57N 09°26' W 079°56'0 0.0
2018-Feb-12 08:27N 09°26' W 079°56'0 0.0
2018-Feb-12 08:00N 09°26' W 079°56'0 0.0
2018-Feb-12 07:30N 09°26' W 079°56'0 0.0
2018-Feb-12 07:00N 09°26' W 079°56'0 0.0
2018-Feb-12 06:30N 09°26' W 079°56'0 0.0
2018-Feb-12 06:00N 09°26' W 079°56'0 0.0
2018-Feb-12 05:30N 09°26' W 079°56'0 0.0
2018-Feb-12 04:57N 09°26' W 079°56'0 0.0
2018-Feb-12 04:30N 09°26' W 079°56'0 0.0
2018-Feb-12 04:00N 09°26' W 079°56'0 0.0
2018-Feb-12 03:30N 09°26' W 079°56'0 0.0
2018-Feb-12 03:00N 09°26' W 079°56'0 0.0
2018-Feb-12 02:30N 09°26' W 079°56'0 0.0
2018-Feb-12 02:00N 09°26' W 079°56'0 0.0
2018-Feb-12 01:30N 09°26' W 079°56'0 0.0
2018-Feb-12 01:00N 09°26' W 079°56'0 0.1
2018-Feb-12 00:30N 09°26' W 079°56'0 0.0
2018-Feb-12 00:00N 09°26' W 079°56'0 0.1
2018-Feb-11 23:30N 09°26' W 079°56'0 0.0
2018-Feb-11 23:00N 09°26' W 079°56'0 0.0
2018-Feb-11 22:30N 09°26' W 079°56'0 0.0
2018-Feb-11 22:00N 09°26' W 079°56'0 0.1
2018-Feb-11 21:30N 09°26' W 079°56'0 0.9
2018-Feb-11 21:00N 09°26' W 079°55'2 3.3
2018-Feb-11 20:30N 09°28' W 079°55'510.4
2018-Feb-11 20:00N 09°33' W 079°53'713.9
2018-Feb-11 19:30N 09°40' W 079°54'713.7
2018-Feb-11 18:59N 09°47' W 079°55'  
2018-Feb-07 09:30N 29°45' W 093°52'0 0.0
2018-Feb-07 09:00N 29°45' W 093°52'0 0.0
2018-Feb-07 08:30N 29°45' W 093°52'0 0.0
2018-Feb-07 08:00N 29°45' W 093°52'0 0.0
2018-Feb-07 07:30N 29°45' W 093°52'0 0.0
2018-Feb-07 06:54N 29°45' W 093°52'0 0.0
2018-Feb-07 06:30N 29°45' W 093°52'0 0.0
2018-Feb-07 05:57N 29°45' W 093°52'0 0.0
2018-Feb-07 05:30N 29°45' W 093°52'0 0.0
2018-Feb-07 05:00N 29°45' W 093°52'0 0.0
2018-Feb-07 04:24N 29°45' W 093°52'0 0.0
2018-Feb-07 03:57N 29°45' W 093°52'0 0.0
2018-Feb-07 03:30N 29°45' W 093°52'0 0.0
2018-Feb-07 03:00N 29°45' W 093°52'0 0.0
2018-Feb-07 02:30N 29°45' W 093°52'0 0.0
2018-Feb-07 02:00N 29°45' W 093°52'0 0.0
2018-Feb-07 01:27N 29°45' W 093°52'0 0.0
2018-Feb-07 01:00N 29°45' W 093°52'0 0.0
2018-Feb-07 00:30N 29°45' W 093°52'0 0.0
2018-Feb-07 00:00N 29°45' W 093°52'0 0.0
2018-Feb-06 23:30N 29°45' W 093°52'0 0.0
2018-Feb-06 23:00N 29°45' W 093°52'0 0.0
2018-Feb-06 22:27N 29°45' W 093°52'0 0.0
2018-Feb-06 22:00N 29°45' W 093°52'0 0.0
2018-Feb-06 21:30N 29°45' W 093°52'0 0.0
2018-Feb-06 21:00N 29°45' W 093°52'0 0.0
2018-Feb-06 20:30N 29°45' W 093°52'0 0.0
2018-Feb-06 20:00N 29°45' W 093°52'0 0.0
2018-Feb-06 19:27N 29°45' W 093°52'0 0.0
2018-Feb-06 19:00N 29°45' W 093°52'0 0.0
2018-Feb-06 18:27N 29°45' W 093°52'0 0.0
2018-Feb-06 18:00N 29°45' W 093°52'0 0.0
2018-Feb-06 17:27N 29°45' W 093°52'0 0.0
2018-Feb-06 17:00N 29°45' W 093°52'0 0.0
2018-Feb-06 16:30N 29°45' W 093°52'0 0.0
2018-Feb-06 16:00N 29°45' W 093°52'0 0.0
2018-Feb-06 15:30N 29°45' W 093°52'0 0.0
2018-Feb-06 14:57N 29°45' W 093°52'0 0.0
2018-Feb-06 14:30N 29°45' W 093°52'0 0.0
2018-Feb-06 13:57N 29°45' W 093°52'0 0.0
2018-Feb-06 13:30N 29°45' W 093°52'0 0.0
2018-Feb-06 13:00N 29°45' W 093°52'0 0.0
2018-Feb-06 12:30N 29°45' W 093°52'0 0.0
2018-Feb-06 12:00N 29°45' W 093°52'0 0.0
2018-Feb-06 11:30N 29°45' W 093°52'0 0.0
2018-Feb-06 10:54N 29°45' W 093°52'0 0.0
2018-Feb-06 10:30N 29°45' W 093°52'0 0.0
2018-Feb-06 10:00N 29°45' W 093°52'0 0.0
2018-Feb-06 09:30N 29°45' W 093°52'0 0.0
2018-Feb-06 09:00N 29°45' W 093°52'0 0.0
2018-Feb-06 08:30N 29°45' W 093°52'0 0.0
2018-Feb-06 08:00N 29°45' W 093°52'0 0.0
2018-Feb-06 07:30N 29°45' W 093°52'0 0.0
2018-Feb-06 07:00N 29°45' W 093°52'0 0.0
2018-Feb-06 06:30N 29°45' W 093°52'0 0.0
2018-Feb-06 06:00N 29°45' W 093°52'0 0.0
2018-Feb-06 05:30N 29°45' W 093°52'0 0.0
2018-Feb-06 05:00N 29°45' W 093°52'0 0.0
2018-Feb-06 04:24N 29°45' W 093°52'0 0.0
2018-Feb-06 04:00N 29°45' W 093°52'0 0.0
2018-Feb-06 03:30N 29°45' W 093°52'0 0.0
2018-Feb-06 02:57N 29°45' W 093°52'0 0.0
2018-Feb-06 02:30N 29°45' W 093°52'0 0.0
2018-Feb-06 02:00N 29°45' W 093°52'0 0.0
2018-Feb-06 01:27N 29°45' W 093°52'0 0.0
2018-Feb-06 01:00N 29°45' W 093°52'0 0.0
2018-Feb-06 00:27N 29°45' W 093°52'0 0.0
2018-Feb-06 00:00N 29°45' W 093°52'0 0.0
2018-Feb-05 23:30N 29°45' W 093°52'0 0.0
2018-Feb-05 23:00N 29°45' W 093°52'0 0.0
2018-Feb-05 22:30N 29°45' W 093°52'0 0.0
2018-Feb-05 22:00N 29°45' W 093°52'0 0.0
2018-Feb-05 21:30N 29°45' W 093°52'0 0.0
2018-Feb-05 21:00N 29°45' W 093°52'0 0.0
2018-Feb-05 20:30N 29°45' W 093°52'0 0.0
2018-Feb-05 15:57N 29°45' W 093°52'0 0.0
2018-Feb-05 12:21N 29°45' W 093°52'0 0.0
2018-Feb-05 11:45N 29°45' W 093°52'0 0.0
2018-Feb-05 11:15N 29°45' W 093°52'0 0.0
2018-Feb-05 10:21N 29°45' W 093°52'0 0.0
2018-Feb-05 10:00N 29°45' W 093°52'1 0.6
2018-Feb-05 09:00N 29°44' W 093°52'3 6.0
2018-Feb-05 08:30N 29°41' W 093°50'510.9
2018-Feb-05 08:00N 29°36' W 093°48'612.0
2018-Feb-05 07:30N 29°32' W 093°44'612.2
2018-Feb-05 07:00N 29°27' W 093°40'3 6.3
2018-Feb-05 06:30N 29°24' W 093°40'2 2.4
2018-Feb-05 05:30N 29°21' W 093°40'2 3.6
2018-Feb-05 05:00N 29°19' W 093°39'3612.3
2018-Feb-05 02:07N 28°47' W 093°22'2014.3
2018-Feb-05 00:44N 28°31' W 093°09'312.6
2018-Feb-05 00:30N 28°29' W 093°07'4 7.3
2018-Feb-04 23:55N 28°26' W 093°04'614.0
2018-Feb-04 23:29N 28°21' W 092°60'  
Track history (hours):
 
Tides and Currents Weather Stations Pressure Air Temp Water Temp Dewpoint Dewpoint Depression Visibility Wind Speed Wind Dir Waves Ship Positions

Beacon Sw Bulker

Last reported at 2018-Feb-13 17:28 UTC. Time now 2018-Feb-20 21:50 UTC.
Position N 09°07' W 079°48'.

Length 295 m; draft 11.6 m.

Type: Tanker. MMSI: 370895000.

Date/timePositionNaut miles runAvg speedWind from/ knotsBaromVisibWave heightAir tempDewpointWater temp
2018-Feb-13 17:28N 09°07' W 079°48'5 7.3
2018-Feb-13 16:49N 09°11' W 079°51'2 8.1
2018-Feb-13 16:30N 09°12' W 079°54'3 6.3
2018-Feb-13 16:01N 09°14' W 079°55'2 3.3
2018-Feb-13 15:29N 09°16' W 079°55'0 0.1
2018-Feb-13 15:00N 09°16' W 079°55'0 0.5
2018-Feb-13 14:30N 09°16' W 079°55'0 0.5
2018-Feb-13 14:00N 09°17' W 079°55'0 0.0
2018-Feb-13 13:30N 09°17' W 079°55'0 0.6
2018-Feb-13 13:00N 09°17' W 079°55'1 1.4
2018-Feb-13 12:30N 09°18' W 079°55'2 4.1
2018-Feb-13 12:00N 09°20' W 079°55'3 5.9
2018-Feb-13 11:30N 09°23' W 079°55'4 8.1
2018-Feb-13 11:00N 09°27' W 079°55'0 1.0
2018-Feb-13 10:30N 09°26' W 079°56'0 0.3
2018-Feb-13 10:00N 09°26' W 079°56'0 0.0
2018-Feb-13 09:30N 09°26' W 079°56'0 0.0
2018-Feb-13 09:00N 09°26' W 079°56'0 0.0
2018-Feb-13 08:30N 09°26' W 079°56'0 0.0
2018-Feb-13 08:00N 09°26' W 079°56'0 0.0
2018-Feb-13 07:30N 09°26' W 079°56'0 0.0
2018-Feb-13 07:00N 09°26' W 079°56'0 0.0
2018-Feb-13 06:27N 09°26' W 079°56'0 0.0
2018-Feb-13 06:00N 09°26' W 079°56'0 0.0
2018-Feb-13 05:30N 09°26' W 079°56'0 0.0
2018-Feb-13 04:57N 09°26' W 079°56'0 0.0
2018-Feb-13 04:30N 09°26' W 079°56'0 0.1
2018-Feb-13 03:57N 09°26' W 079°56'0 0.0
2018-Feb-13 03:30N 09°26' W 079°56'0 0.0
2018-Feb-13 03:00N 09°26' W 079°56'0 0.0
2018-Feb-13 02:30N 09°26' W 079°56'0 0.0
2018-Feb-13 02:00N 09°26' W 079°56'0 0.0
2018-Feb-13 01:27N 09°26' W 079°56'0 0.0
2018-Feb-13 01:00N 09°26' W 079°56'0 0.0
2018-Feb-13 00:30N 09°26' W 079°56'0 0.0
2018-Feb-13 00:00N 09°26' W 079°56'0 0.0
2018-Feb-12 23:30N 09°26' W 079°56'0 0.0
2018-Feb-12 23:00N 09°26' W 079°56'0 0.0
2018-Feb-12 22:30N 09°26' W 079°56'0 0.0
2018-Feb-12 22:00N 09°26' W 079°56'0 0.0
2018-Feb-12 21:30N 09°26' W 079°56'0 0.0
2018-Feb-12 20:57N 09°26' W 079°56'0 0.0
2018-Feb-12 20:30N 09°26' W 079°56'0 0.0
2018-Feb-12 20:00N 09°26' W 079°56'0 0.0
2018-Feb-12 19:30N 09°26' W 079°56'0 0.0
2018-Feb-12 19:00N 09°26' W 079°56'0 0.0
2018-Feb-12 18:30N 09°26' W 079°56'0 0.0
2018-Feb-12 18:00N 09°26' W 079°56'0 0.0
2018-Feb-12 17:30N 09°26' W 079°56'0 0.0
2018-Feb-12 17:00N 09°26' W 079°56'0 0.1
2018-Feb-12 16:30N 09°26' W 079°56'0 0.1
2018-Feb-12 16:00N 09°26' W 079°56'0 0.1
2018-Feb-12 15:15N 09°26' W 079°56'0 0.0
2018-Feb-12 15:00N 09°26' W 079°56'0 0.0
2018-Feb-12 14:30N 09°26' W 079°56'0 0.0
2018-Feb-12 14:00N 09°26' W 079°56'0 0.0
2018-Feb-12 13:30N 09°26' W 079°56'0 0.0
2018-Feb-12 13:00N 09°26' W 079°56'0 0.0
2018-Feb-12 12:30N 09°26' W 079°56'0 0.0
2018-Feb-12 12:00N 09°26' W 079°56'0 0.0
2018-Feb-12 11:30N 09°26' W 079°56'0 0.0
2018-Feb-12 11:00N 09°26' W 079°56'0 0.0
2018-Feb-12 10:30N 09°26' W 079°56'0 0.0
2018-Feb-12 10:00N 09°26' W 079°56'0 0.0
2018-Feb-12 09:27N 09°26' W 079°56'0 0.0
2018-Feb-12 08:57N 09°26' W 079°56'0 0.0
2018-Feb-12 08:27N 09°26' W 079°56'0 0.0
2018-Feb-12 08:00N 09°26' W 079°56'0 0.0
2018-Feb-12 07:30N 09°26' W 079°56'0 0.0
2018-Feb-12 07:00N 09°26' W 079°56'0 0.0
2018-Feb-12 06:30N 09°26' W 079°56'0 0.0
2018-Feb-12 06:00N 09°26' W 079°56'0 0.0
2018-Feb-12 05:30N 09°26' W 079°56'0 0.0
2018-Feb-12 04:57N 09°26' W 079°56'0 0.0
2018-Feb-12 04:30N 09°26' W 079°56'0 0.0
2018-Feb-12 04:00N 09°26' W 079°56'0 0.0
2018-Feb-12 03:30N 09°26' W 079°56'0 0.0
2018-Feb-12 03:00N 09°26' W 079°56'0 0.0
2018-Feb-12 02:30N 09°26' W 079°56'0 0.0
2018-Feb-12 02:00N 09°26' W 079°56'0 0.0
2018-Feb-12 01:30N 09°26' W 079°56'0 0.0
2018-Feb-12 01:00N 09°26' W 079°56'0 0.1
2018-Feb-12 00:30N 09°26' W 079°56'0 0.0
2018-Feb-12 00:00N 09°26' W 079°56'0 0.1
2018-Feb-11 23:30N 09°26' W 079°56'0 0.0
2018-Feb-11 23:00N 09°26' W 079°56'0 0.0
2018-Feb-11 22:30N 09°26' W 079°56'0 0.0
2018-Feb-11 22:00N 09°26' W 079°56'0 0.1
2018-Feb-11 21:30N 09°26' W 079°56'0 0.9
2018-Feb-11 21:00N 09°26' W 079°55'2 3.3
2018-Feb-11 20:30N 09°28' W 079°55'510.4
2018-Feb-11 20:00N 09°33' W 079°53'713.9
2018-Feb-11 19:30N 09°40' W 079°54'713.7
2018-Feb-11 18:59N 09°47' W 079°55'  
2018-Feb-07 09:30N 29°45' W 093°52'0 0.0
2018-Feb-07 09:00N 29°45' W 093°52'0 0.0
2018-Feb-07 08:30N 29°45' W 093°52'0 0.0
2018-Feb-07 08:00N 29°45' W 093°52'0 0.0
2018-Feb-07 07:30N 29°45' W 093°52'0 0.0
2018-Feb-07 06:54N 29°45' W 093°52'0 0.0
2018-Feb-07 06:30N 29°45' W 093°52'0 0.0
2018-Feb-07 05:57N 29°45' W 093°52'0 0.0
2018-Feb-07 05:30N 29°45' W 093°52'0 0.0
2018-Feb-07 05:00N 29°45' W 093°52'0 0.0
2018-Feb-07 04:24N 29°45' W 093°52'0 0.0
2018-Feb-07 03:57N 29°45' W 093°52'0 0.0
2018-Feb-07 03:30N 29°45' W 093°52'0 0.0
2018-Feb-07 03:00N 29°45' W 093°52'0 0.0
2018-Feb-07 02:30N 29°45' W 093°52'0 0.0
2018-Feb-07 02:00N 29°45' W 093°52'0 0.0
2018-Feb-07 01:27N 29°45' W 093°52'0 0.0
2018-Feb-07 01:00N 29°45' W 093°52'0 0.0
2018-Feb-07 00:30N 29°45' W 093°52'0 0.0
2018-Feb-07 00:00N 29°45' W 093°52'0 0.0
2018-Feb-06 23:30N 29°45' W 093°52'0 0.0
2018-Feb-06 23:00N 29°45' W 093°52'0 0.0
2018-Feb-06 22:27N 29°45' W 093°52'0 0.0
2018-Feb-06 22:00N 29°45' W 093°52'0 0.0
2018-Feb-06 21:30N 29°45' W 093°52'0 0.0
2018-Feb-06 21:00N 29°45' W 093°52'0 0.0
2018-Feb-06 20:30N 29°45' W 093°52'0 0.0
2018-Feb-06 20:00N 29°45' W 093°52'0 0.0
2018-Feb-06 19:27N 29°45' W 093°52'0 0.0
2018-Feb-06 19:00N 29°45' W 093°52'0 0.0
2018-Feb-06 18:27N 29°45' W 093°52'0 0.0
2018-Feb-06 18:00N 29°45' W 093°52'0 0.0
2018-Feb-06 17:27N 29°45' W 093°52'0 0.0
2018-Feb-06 17:00N 29°45' W 093°52'0 0.0
2018-Feb-06 16:30N 29°45' W 093°52'0 0.0
2018-Feb-06 16:00N 29°45' W 093°52'0 0.0
2018-Feb-06 15:30N 29°45' W 093°52'0 0.0
2018-Feb-06 14:57N 29°45' W 093°52'0 0.0
2018-Feb-06 14:30N 29°45' W 093°52'0 0.0
2018-Feb-06 13:57N 29°45' W 093°52'0 0.0
2018-Feb-06 13:30N 29°45' W 093°52'0 0.0
2018-Feb-06 13:00N 29°45' W 093°52'0 0.0
2018-Feb-06 12:30N 29°45' W 093°52'0 0.0
2018-Feb-06 12:00N 29°45' W 093°52'0 0.0
2018-Feb-06 11:30N 29°45' W 093°52'0 0.0
2018-Feb-06 10:54N 29°45' W 093°52'0 0.0
2018-Feb-06 10:30N 29°45' W 093°52'0 0.0
2018-Feb-06 10:00N 29°45' W 093°52'0 0.0
2018-Feb-06 09:30N 29°45' W 093°52'0 0.0
2018-Feb-06 09:00N 29°45' W 093°52'0 0.0
2018-Feb-06 08:30N 29°45' W 093°52'0 0.0
2018-Feb-06 08:00N 29°45' W 093°52'0 0.0
2018-Feb-06 07:30N 29°45' W 093°52'0 0.0
2018-Feb-06 07:00N 29°45' W 093°52'0 0.0
2018-Feb-06 06:30N 29°45' W 093°52'0 0.0
2018-Feb-06 06:00N 29°45' W 093°52'0 0.0
2018-Feb-06 05:30N 29°45' W 093°52'0 0.0
2018-Feb-06 05:00N 29°45' W 093°52'0 0.0
2018-Feb-06 04:24N 29°45' W 093°52'0 0.0
2018-Feb-06 04:00N 29°45' W 093°52'0 0.0
2018-Feb-06 03:30N 29°45' W 093°52'0 0.0
2018-Feb-06 02:57N 29°45' W 093°52'0 0.0
2018-Feb-06 02:30N 29°45' W 093°52'0 0.0
2018-Feb-06 02:00N 29°45' W 093°52'0 0.0
2018-Feb-06 01:27N 29°45' W 093°52'0 0.0
2018-Feb-06 01:00N 29°45' W 093°52'0 0.0
2018-Feb-06 00:27N 29°45' W 093°52'0 0.0
2018-Feb-06 00:00N 29°45' W 093°52'0 0.0
2018-Feb-05 23:30N 29°45' W 093°52'0 0.0
2018-Feb-05 23:00N 29°45' W 093°52'0 0.0
2018-Feb-05 22:30N 29°45' W 093°52'0 0.0
2018-Feb-05 22:00N 29°45' W 093°52'0 0.0
2018-Feb-05 21:30N 29°45' W 093°52'0 0.0
2018-Feb-05 21:00N 29°45' W 093°52'0 0.0
2018-Feb-05 20:30N 29°45' W 093°52'0 0.0
2018-Feb-05 15:57N 29°45' W 093°52'0 0.0
2018-Feb-05 12:21N 29°45' W 093°52'0 0.0
2018-Feb-05 11:45N 29°45' W 093°52'0 0.0
2018-Feb-05 11:15N 29°45' W 093°52'0 0.0
2018-Feb-05 10:21N 29°45' W 093°52'0 0.0
2018-Feb-05 10:00N 29°45' W 093°52'1 0.6
2018-Feb-05 09:00N 29°44' W 093°52'3 6.0
2018-Feb-05 08:30N 29°41' W 093°50'510.9
2018-Feb-05 08:00N 29°36' W 093°48'612.0
2018-Feb-05 07:30N 29°32' W 093°44'612.2
2018-Feb-05 07:00N 29°27' W 093°40'3 6.3
2018-Feb-05 06:30N 29°24' W 093°40'2 2.4
2018-Feb-05 05:30N 29°21' W 093°40'2 3.6
2018-Feb-05 05:00N 29°19' W 093°39'3612.3
2018-Feb-05 02:07N 28°47' W 093°22'2014.3
2018-Feb-05 00:44N 28°31' W 093°09'312.6
2018-Feb-05 00:30N 28°29' W 093°07'4 7.3
2018-Feb-04 23:55N 28°26' W 093°04'614.0
2018-Feb-04 23:29N 28°21' W 092°60'  

Dump ship's entire track history